KTHV/THV METAR and TAF weather

Enter ICAO airport designator
Station Type Date Time Source
KTHV METAR 2020/07/11 17:53 UTC NOAA

KTHV 111753Z AUTO 25005G14KT 10SM SCT047 31/19 A2970 RMK AO2 SLP052 T03060194 10306 20239 58012


Station Type Date Time Source
KTHV Decoded METAR 2020/07/11 17:53 UTC NOAA

YORK AIRPORT, PA, United States (KTHV) 39-55N 076-53W 144M
Jul 11, 2020 - 01:53 PM EDT / 2020.07.11 1753 UTC
Wind: from the WSW (250 degrees) at 6 MPH (5 KT) gusting to 16 MPH (14 KT):0
Visibility: 10 mile(s):0
Sky conditions: partly cloudy
Temperature: 87.1 F (30.6 C)
Dew Point: 66.9 F (19.4 C)
Relative Humidity: 51%
Pressure (altimeter): 29.7 in. Hg (1005 hPa)
Pressure tendency: 0.04 inches (1.2 hPa) lower than three hours ago
ob: KTHV 111753Z AUTO 25005G14KT 10SM SCT047 31/19 A2970 RMK AO2 SLP052 T03060194 10306 20239 58012
cycle: 18

Station Type Date Time Source
KTHV TAF UTC NOAA

Error!

Example: see airport list